createdAt,value
2016-06-22T00:00:58.846Z,-78
2016-06-22T00:01:58.733Z,-78
2016-06-22T00:02:58.801Z,-78
2016-06-22T00:03:58.797Z,-78
2016-06-22T00:04:58.831Z,-78
2016-06-22T00:05:58.765Z,-78
2016-06-22T00:06:58.769Z,-78
2016-06-22T00:07:58.816Z,-79
2016-06-22T00:08:58.825Z,-78
2016-06-22T00:09:58.847Z,-78
2016-06-22T00:10:58.836Z,-79
2016-06-22T00:11:58.810Z,-78
2016-06-22T00:12:58.844Z,-79
2016-06-22T00:13:58.866Z,-78
2016-06-22T00:14:58.823Z,-79
2016-06-22T00:15:58.783Z,-79
2016-06-22T00:16:58.801Z,-79
2016-06-22T00:17:58.821Z,-78
2016-06-22T00:18:58.794Z,-78
2016-06-22T00:19:58.836Z,-78
2016-06-22T00:20:58.866Z,-78
2016-06-22T00:21:58.813Z,-79
2016-06-22T00:22:58.808Z,-78
2016-06-22T00:23:58.775Z,-78
2016-06-22T00:24:58.859Z,-78
2016-06-22T00:25:58.869Z,-78
2016-06-22T00:26:58.788Z,-79
2016-06-22T00:27:58.833Z,-79
2016-06-22T00:28:58.834Z,-79
2016-06-22T00:29:58.809Z,-78
2016-06-22T00:30:58.815Z,-79
2016-06-22T00:31:58.849Z,-78
2016-06-22T00:32:58.819Z,-78
2016-06-22T00:33:58.809Z,-78
2016-06-22T00:34:58.855Z,-79
2016-06-22T00:35:58.797Z,-79
2016-06-22T00:36:58.893Z,-79
2016-06-22T00:37:58.810Z,-78
2016-06-22T00:38:58.835Z,-78
2016-06-22T00:39:58.866Z,-79
2016-06-22T00:40:58.901Z,-78
2016-06-22T00:41:58.865Z,-79
2016-06-22T00:42:58.838Z,-79
2016-06-22T00:43:58.798Z,-78
2016-06-22T00:44:58.862Z,-79
2016-06-22T00:45:58.877Z,-78
2016-06-22T00:46:58.830Z,-78
2016-06-22T00:47:58.875Z,-78
2016-06-22T00:48:58.842Z,-78
2016-06-22T00:49:58.885Z,-79
2016-06-22T00:50:58.874Z,-78
2016-06-22T00:51:58.849Z,-78
2016-06-22T00:52:58.851Z,-78
2016-06-22T00:53:58.847Z,-78
2016-06-22T00:54:58.854Z,-78
2016-06-22T00:55:58.929Z,-79
2016-06-22T00:56:58.887Z,-79
2016-06-22T00:57:58.850Z,-79
2016-06-22T00:58:58.856Z,-78
2016-06-22T00:59:58.907Z,-79
2016-06-22T01:00:58.915Z,-79
2016-06-22T01:01:58.923Z,-78
2016-06-22T01:02:58.891Z,-78
2016-06-22T01:03:58.863Z,-78
2016-06-22T01:04:58.866Z,-79
2016-06-22T01:05:58.927Z,-78
2016-06-22T01:06:58.854Z,-78
2016-06-22T01:07:58.905Z,-78
2016-06-22T01:08:58.836Z,-79
2016-06-22T01:09:58.934Z,-78
2016-06-22T01:10:58.922Z,-78
2016-06-22T01:11:58.879Z,-78
2016-06-22T01:12:58.880Z,-79
2016-06-22T01:13:58.885Z,-79
2016-06-22T01:14:58.881Z,-79
2016-06-22T01:15:58.868Z,-78
2016-06-22T01:16:58.914Z,-78
2016-06-22T01:17:58.900Z,-79
2016-06-22T01:18:58.913Z,-79
2016-06-22T01:19:58.907Z,-79
2016-06-22T01:20:59.092Z,-78
2016-06-22T01:21:58.884Z,-79
2016-06-22T01:22:58.861Z,-79
2016-06-22T01:23:58.931Z,-79
2016-06-22T01:24:58.922Z,-78
2016-06-22T01:25:58.937Z,-78
2016-06-22T01:26:58.902Z,-78
2016-06-22T01:27:58.931Z,-78
2016-06-22T01:28:58.907Z,-78
2016-06-22T01:29:58.897Z,-78
2016-06-22T01:30:58.934Z,-79
2016-06-22T01:31:58.964Z,-78
2016-06-22T01:32:58.930Z,-78
2016-06-22T01:33:58.939Z,-78
2016-06-22T01:34:58.946Z,-79
2016-06-22T01:35:58.936Z,-79
2016-06-22T01:36:58.963Z,-78
2016-06-22T01:37:58.957Z,-78
2016-06-22T01:38:58.982Z,-78
2016-06-22T01:39:58.931Z,-79
2016-06-22T01:40:58.957Z,-79
2016-06-22T01:41:58.881Z,-78
2016-06-22T01:42:58.909Z,-78
2016-06-22T01:43:58.929Z,-78
2016-06-22T01:44:58.910Z,-78
2016-06-22T01:45:58.891Z,-78
2016-06-22T01:46:58.927Z,-78
2016-06-22T01:47:58.949Z,-79
2016-06-22T01:48:58.925Z,-78
2016-06-22T01:49:58.958Z,-78
2016-06-22T01:50:58.934Z,-79
2016-06-22T01:51:58.919Z,-79
2016-06-22T01:52:58.944Z,-79
2016-06-22T01:53:58.979Z,-79
2016-06-22T01:54:58.922Z,-79
2016-06-22T01:55:58.937Z,-79
2016-06-22T01:56:58.965Z,-78
2016-06-22T01:57:58.928Z,-79
2016-06-22T01:58:59.006Z,-79
2016-06-22T01:59:59.006Z,-78
2016-06-22T02:00:58.948Z,-79
2016-06-22T02:01:59.007Z,-78
2016-06-22T02:02:58.971Z,-78
2016-06-22T02:03:58.998Z,-79
2016-06-22T02:04:58.917Z,-78
2016-06-22T02:05:58.966Z,-78
2016-06-22T02:06:58.952Z,-78
2016-06-22T02:07:59.009Z,-79
2016-06-22T02:08:59.024Z,-78
2016-06-22T02:09:59.034Z,-79
2016-06-22T02:10:58.962Z,-79
2016-06-22T02:11:58.969Z,-78
2016-06-22T02:12:58.963Z,-78
2016-06-22T02:13:58.967Z,-78
2016-06-22T02:14:58.930Z,-78
2016-06-22T02:15:58.945Z,-79
2016-06-22T02:16:58.972Z,-78
2016-06-22T02:17:59.011Z,-79
2016-06-22T02:18:58.964Z,-78
2016-06-22T02:19:59.006Z,-78
2016-06-22T02:20:59.008Z,-79
2016-06-22T02:21:59.043Z,-78
2016-06-22T02:22:59.006Z,-78
2016-06-22T02:23:58.993Z,-78
2016-06-22T02:24:58.941Z,-78
2016-06-22T02:25:59.013Z,-79
2016-06-22T02:26:58.990Z,-78
2016-06-22T02:27:59.061Z,-79
2016-06-22T02:28:58.943Z,-78
2016-06-22T02:29:58.947Z,-79
2016-06-22T02:30:59.010Z,-79
2016-06-22T02:31:58.954Z,-79
2016-06-22T02:32:58.979Z,-78
2016-06-22T02:33:58.954Z,-78
2016-06-22T02:34:59.007Z,-79
2016-06-22T02:35:58.981Z,-78
2016-06-22T02:36:58.978Z,-78
2016-06-22T02:37:59.036Z,-78
2016-06-22T02:38:58.967Z,-78
2016-06-22T02:39:59.029Z,-79
2016-06-22T02:40:59.049Z,-78
2016-06-22T02:41:59.002Z,-78
2016-06-22T02:42:59.030Z,-79
2016-06-22T02:43:59.057Z,-78
2016-06-22T02:44:59.072Z,-79
2016-06-22T02:45:59.045Z,-79
2016-06-22T02:46:59.019Z,-79
2016-06-22T02:47:59.039Z,-78
2016-06-22T02:48:59.044Z,-78
2016-06-22T02:49:59.039Z,-78
2016-06-22T02:50:58.993Z,-78
2016-06-22T02:51:59.037Z,-78
2016-06-22T02:52:59.076Z,-78
2016-06-22T02:53:58.988Z,-78
2016-06-22T02:54:59.036Z,-78
2016-06-22T02:55:59.016Z,-78
2016-06-22T02:56:59.088Z,-79
2016-06-22T02:57:59.025Z,-78
2016-06-22T02:58:59.021Z,-79
2016-06-22T02:59:59.024Z,-79
2016-06-22T03:00:59.048Z,-79
2016-06-22T03:01:59.038Z,-79
2016-06-22T03:02:59.026Z,-78
2016-06-22T03:03:59.030Z,-79
2016-06-22T03:04:58.999Z,-79
2016-06-22T03:05:59.022Z,-78
2016-06-22T03:06:59.086Z,-78
2016-06-22T03:07:59.031Z,-79
2016-06-22T03:08:59.068Z,-79
2016-06-22T03:09:59.091Z,-78
2016-06-22T03:10:59.094Z,-78
2016-06-22T03:11:59.028Z,-79
2016-06-22T03:12:59.070Z,-79
2016-06-22T03:13:59.048Z,-78
2016-06-22T03:14:59.100Z,-78
2016-06-22T03:15:59.063Z,-79
2016-06-22T03:16:59.082Z,-79
2016-06-22T03:17:59.081Z,-78
2016-06-22T03:18:59.062Z,-79
2016-06-22T03:19:59.089Z,-78
2016-06-22T03:20:59.052Z,-79
2016-06-22T03:21:59.120Z,-78
2016-06-22T03:22:59.091Z,-78
2016-06-22T03:23:59.090Z,-79
2016-06-22T03:24:59.084Z,-78
2016-06-22T03:25:59.084Z,-79
2016-06-22T03:26:59.027Z,-78
2016-06-22T03:27:59.061Z,-78
2016-06-22T03:28:59.062Z,-78
2016-06-22T03:29:59.052Z,-78
2016-06-22T03:30:59.051Z,-78
2016-06-22T03:31:59.145Z,-78
2016-06-22T03:32:59.039Z,-78
2016-06-22T03:33:59.070Z,-79
2016-06-22T03:34:59.126Z,-79
2016-06-22T03:35:59.043Z,-78
2016-06-22T03:36:59.139Z,-78
2016-06-22T03:37:59.139Z,-78
2016-06-22T03:38:59.075Z,-78
2016-06-22T03:39:59.107Z,-79
2016-06-22T03:40:59.119Z,-79
2016-06-22T03:41:59.078Z,-78
2016-06-22T03:42:59.099Z,-79
2016-06-22T03:43:59.149Z,-79
2016-06-22T03:44:59.085Z,-79
2016-06-22T03:45:59.143Z,-78
2016-06-22T03:46:59.155Z,-78
2016-06-22T03:47:59.111Z,-79
2016-06-22T03:48:59.144Z,-79
2016-06-22T03:49:59.171Z,-78
2016-06-22T03:50:59.058Z,-79
2016-06-22T03:51:59.150Z,-78
2016-06-22T03:52:59.102Z,-78
2016-06-22T03:53:59.099Z,-78
2016-06-22T03:54:59.140Z,-78
2016-06-22T03:55:59.152Z,-79
2016-06-22T03:56:59.125Z,-79
2016-06-22T03:57:59.109Z,-79
2016-06-22T03:58:59.141Z,-79
2016-06-22T03:59:59.179Z,-79
2016-06-22T04:00:59.088Z,-79
2016-06-22T04:01:59.147Z,-79
2016-06-22T04:02:59.152Z,-79
2016-06-22T04:03:59.151Z,-78
2016-06-22T04:04:59.113Z,-78
2016-06-22T04:05:59.176Z,-79
2016-06-22T04:06:59.127Z,-78
2016-06-22T04:07:59.158Z,-79
2016-06-22T04:08:59.142Z,-78
2016-06-22T04:09:59.186Z,-78
2016-06-22T04:10:59.125Z,-79
2016-06-22T04:11:59.124Z,-79
2016-06-22T04:12:59.098Z,-78
2016-06-22T04:13:59.146Z,-79
2016-06-22T04:14:59.143Z,-79
2016-06-22T04:15:59.164Z,-79
2016-06-22T04:16:59.157Z,-78
2016-06-22T04:17:59.187Z,-79
2016-06-22T04:18:59.140Z,-78
2016-06-22T04:19:59.215Z,-79
2016-06-22T04:20:59.182Z,-79
2016-06-22T04:21:59.195Z,-78
2016-06-22T04:22:59.139Z,-79
2016-06-22T04:23:59.147Z,-78
2016-06-22T04:24:59.119Z,-79
2016-06-22T04:25:59.167Z,-78
2016-06-22T04:26:59.122Z,-78
2016-06-22T04:27:59.211Z,-79
2016-06-22T04:28:59.111Z,-78
2016-06-22T04:29:59.156Z,-79
2016-06-22T04:30:59.181Z,-78
2016-06-22T04:31:59.109Z,-79
2016-06-22T04:32:59.195Z,-79
2016-06-22T04:33:59.170Z,-79
2016-06-22T04:34:59.185Z,-78
2016-06-22T04:35:59.130Z,-79
2016-06-22T04:36:59.150Z,-79
2016-06-22T04:37:59.227Z,-79
2016-06-22T04:38:59.186Z,-78
2016-06-22T04:39:59.194Z,-78
2016-06-22T04:40:59.205Z,-79
2016-06-22T04:41:59.197Z,-78
2016-06-22T04:42:59.200Z,-78
2016-06-22T04:43:59.235Z,-79
2016-06-22T04:44:59.223Z,-78
2016-06-22T04:45:59.253Z,-79
2016-06-22T04:46:59.249Z,-78
2016-06-22T04:47:59.162Z,-79
2016-06-22T04:48:59.231Z,-79
2016-06-22T04:49:59.152Z,-79
2016-06-22T04:50:59.182Z,-78
2016-06-22T04:51:59.205Z,-79
2016-06-22T04:52:59.254Z,-79
2016-06-22T04:53:59.182Z,-78
2016-06-22T04:54:59.215Z,-78
2016-06-22T04:55:59.260Z,-79
2016-06-22T04:56:59.229Z,-78
2016-06-22T04:57:59.240Z,-79
2016-06-22T04:58:59.195Z,-79
2016-06-22T04:59:59.214Z,-78
2016-06-22T05:00:59.194Z,-79
2016-06-22T05:01:59.278Z,-79
2016-06-22T05:02:59.238Z,-79
2016-06-22T05:03:59.224Z,-79
2016-06-22T05:04:59.263Z,-78
2016-06-22T05:05:59.198Z,-78
2016-06-22T05:06:59.169Z,-79
2016-06-22T05:07:59.207Z,-79
2016-06-22T05:08:59.245Z,-78
2016-06-22T05:09:59.225Z,-79
2016-06-22T05:10:59.248Z,-78
2016-06-22T05:11:59.317Z,-79
2016-06-22T05:12:59.213Z,-78
2016-06-22T05:13:59.243Z,-79
2016-06-22T05:14:59.213Z,-79
2016-06-22T05:15:59.248Z,-78
2016-06-22T05:16:59.247Z,-78
2016-06-22T05:17:59.254Z,-78
2016-06-22T05:18:59.239Z,-78
2016-06-22T05:19:59.209Z,-78
2016-06-22T05:20:59.264Z,-78
2016-06-22T05:21:59.233Z,-78
2016-06-22T05:22:59.235Z,-79
2016-06-22T05:23:59.279Z,-78
2016-06-22T05:24:59.231Z,-79
2016-06-22T05:25:59.205Z,-78
2016-06-22T05:26:59.226Z,-78
2016-06-22T05:27:59.233Z,-78
2016-06-22T05:28:59.219Z,-79
2016-06-22T05:29:59.310Z,-78
2016-06-22T05:30:59.271Z,-78
2016-06-22T05:31:59.255Z,-79
2016-06-22T05:32:59.246Z,-79
2016-06-22T05:33:59.261Z,-79
2016-06-22T05:34:59.244Z,-78
2016-06-22T05:35:59.287Z,-79
2016-06-22T05:36:59.294Z,-79
2016-06-22T05:37:59.402Z,-79
2016-06-22T05:38:59.269Z,-79
2016-06-22T05:39:59.302Z,-79
2016-06-22T05:40:59.224Z,-79
2016-06-22T05:41:59.286Z,-79
2016-06-22T05:42:59.306Z,-79
2016-06-22T05:43:59.285Z,-78
2016-06-22T05:44:59.239Z,-78
2016-06-22T05:45:59.306Z,-79
2016-06-22T05:46:59.283Z,-79
2016-06-22T05:47:59.324Z,-79
2016-06-22T05:48:59.261Z,-79
2016-06-22T05:49:59.301Z,-78
2016-06-22T05:50:59.289Z,-79
2016-06-22T05:51:59.307Z,-78
2016-06-22T05:52:59.309Z,-79
2016-06-22T05:53:59.348Z,-79
2016-06-22T05:54:59.290Z,-78
2016-06-22T05:55:59.341Z,-78
2016-06-22T05:56:59.347Z,-78
2016-06-22T05:57:59.350Z,-79
2016-06-22T05:58:59.254Z,-78
2016-06-22T05:59:59.300Z,-78
2016-06-22T06:00:59.295Z,-78
2016-06-22T06:01:59.324Z,-79
2016-06-22T06:02:59.321Z,-78
2016-06-22T06:03:59.272Z,-79
2016-06-22T06:04:59.325Z,-79
2016-06-22T06:05:59.295Z,-79
2016-06-22T06:06:59.296Z,-78
2016-06-22T06:07:59.297Z,-79
2016-06-22T06:08:59.299Z,-79
2016-06-22T06:09:59.267Z,-79
2016-06-22T06:10:59.318Z,-78
2016-06-22T06:11:59.302Z,-79
2016-06-22T06:12:59.332Z,-78
2016-06-22T06:13:59.331Z,-79
2016-06-22T06:14:59.322Z,-78
2016-06-22T06:15:59.367Z,-79
2016-06-22T06:16:59.312Z,-79
2016-06-22T06:17:59.351Z,-79
2016-06-22T06:18:59.335Z,-79
2016-06-22T06:19:59.367Z,-79
2016-06-22T06:20:59.379Z,-78
2016-06-22T06:21:59.483Z,-78
2016-06-22T06:22:59.368Z,-78
2016-06-22T06:23:59.327Z,-79
2016-06-22T06:24:59.346Z,-79
2016-06-22T06:25:59.325Z,-78
2016-06-22T06:26:59.327Z,-78
2016-06-22T06:27:59.390Z,-79
2016-06-22T06:28:59.311Z,-78
2016-06-22T06:29:59.368Z,-78
2016-06-22T06:30:59.311Z,-78
2016-06-22T06:31:59.354Z,-79
2016-06-22T06:32:59.410Z,-78
2016-06-22T06:33:59.360Z,-80
2016-06-22T06:34:59.430Z,-79
2016-06-22T06:35:59.398Z,-80
2016-06-22T06:36:59.345Z,-79
2016-06-22T06:37:59.381Z,-79
2016-06-22T06:38:59.470Z,-80
2016-06-22T06:39:59.452Z,-77
2016-06-22T06:40:59.490Z,-78
2016-06-22T06:41:59.373Z,-81
2016-06-22T06:42:59.378Z,-81
2016-06-22T06:44:00.265Z,-78
2016-06-22T06:44:59.348Z,-80
2016-06-22T06:45:59.371Z,-79
2016-06-22T06:46:59.338Z,-79
2016-06-22T06:47:59.335Z,-79
2016-06-22T06:48:59.384Z,-80
2016-06-22T06:49:59.390Z,-79
2016-06-22T06:50:59.429Z,-80
2016-06-22T06:51:59.431Z,-79
2016-06-22T06:52:59.445Z,-79
2016-06-22T06:53:59.433Z,-79
2016-06-22T06:54:59.448Z,-78
2016-06-22T06:55:59.379Z,-78
2016-06-22T06:56:59.396Z,-78
2016-06-22T06:57:59.462Z,-78
2016-06-22T06:58:59.388Z,-79
2016-06-22T06:59:59.371Z,-79
2016-06-22T07:00:59.415Z,-79
2016-06-22T07:01:59.453Z,-79
2016-06-22T07:02:59.427Z,-79
2016-06-22T07:03:59.408Z,-78
2016-06-22T07:04:59.487Z,-79
2016-06-22T07:05:59.422Z,-78
2016-06-22T07:06:59.384Z,-79
2016-06-22T07:07:59.388Z,-78
2016-06-22T07:08:59.410Z,-77
2016-06-22T07:09:59.360Z,-77
2016-06-22T07:10:59.480Z,-76
2016-06-22T07:11:59.344Z,-78
2016-06-22T07:12:59.437Z,-77
2016-06-22T07:13:59.388Z,-79
2016-06-22T07:14:59.498Z,-79
2016-06-22T07:15:59.430Z,-80
2016-06-22T07:16:59.458Z,-80
2016-06-22T07:17:59.754Z,-80
2016-06-22T07:18:59.431Z,-79
2016-06-22T07:19:59.467Z,-80
2016-06-22T07:20:59.432Z,-80
2016-06-22T07:22:00.205Z,-81
2016-06-22T07:22:59.391Z,-79
2016-06-22T07:23:59.409Z,-79
2016-06-22T07:24:59.902Z,-79
2016-06-22T07:25:59.461Z,-79
2016-06-22T07:26:59.382Z,-80
2016-06-22T07:27:59.499Z,-79
2016-06-22T07:28:59.636Z,-79
2016-06-22T07:29:59.491Z,-78
2016-06-22T07:30:59.623Z,-79
2016-06-22T07:31:59.671Z,-80
2016-06-22T07:32:59.586Z,-80
2016-06-22T07:33:59.470Z,-79
2016-06-22T07:34:59.883Z,-79
2016-06-22T07:35:59.429Z,-78
2016-06-22T07:37:00.098Z,-79
2016-06-22T07:37:59.620Z,-79
2016-06-22T07:38:59.854Z,-78
2016-06-22T07:39:59.672Z,-79
2016-06-22T07:40:59.521Z,-78
2016-06-22T07:41:59.695Z,-79
2016-06-22T07:42:59.621Z,-80
2016-06-22T07:43:59.443Z,-77
2016-06-22T07:44:59.504Z,-78
2016-06-22T07:45:59.490Z,-78
2016-06-22T07:46:59.437Z,-77
2016-06-22T07:47:59.447Z,-77
2016-06-22T07:48:59.484Z,-79
2016-06-22T07:49:59.447Z,-78
2016-06-22T07:50:59.519Z,-79
2016-06-22T07:51:59.514Z,-78
2016-06-22T07:52:59.469Z,-79
2016-06-22T07:53:59.462Z,-79
2016-06-22T07:54:59.462Z,-77
2016-06-22T07:55:59.457Z,-78
2016-06-22T07:56:59.508Z,-78
2016-06-22T07:57:59.517Z,-78
2016-06-22T07:58:59.477Z,-78
2016-06-22T07:59:59.522Z,-76
2016-06-22T08:01:00.330Z,-77
2016-06-22T08:01:59.802Z,-78
2016-06-22T08:02:59.496Z,-76
2016-06-22T08:04:00.061Z,-78
2016-06-22T08:04:59.622Z,-78
2016-06-22T08:05:59.551Z,-79
2016-06-22T08:06:59.533Z,-78
2016-06-22T08:07:59.496Z,-77
2016-06-22T08:08:59.558Z,-76
2016-06-22T08:09:59.520Z,-75
2016-06-22T08:11:00.815Z,-76
2016-06-22T08:11:59.697Z,-77
2016-06-22T08:12:59.539Z,-77
2016-06-22T08:13:59.678Z,-78
2016-06-22T08:14:59.566Z,-76
2016-06-22T08:15:59.514Z,-77
2016-06-22T08:16:59.527Z,-76
2016-06-22T08:17:59.751Z,-76
2016-06-22T08:19:00.544Z,-77
2016-06-22T08:19:59.450Z,-76
2016-06-22T08:20:59.532Z,-78
2016-06-22T08:21:59.518Z,-77
2016-06-22T08:23:00.551Z,-78
2016-06-22T08:23:59.562Z,-78
2016-06-22T08:24:59.525Z,-78
2016-06-22T08:25:59.485Z,-77
2016-06-22T08:26:59.827Z,-76
2016-06-22T08:27:59.524Z,-75
2016-06-22T08:28:59.522Z,-76
2016-06-22T08:29:59.459Z,-74
2016-06-22T08:30:59.591Z,-75
2016-06-22T08:31:59.524Z,-76
2016-06-22T08:32:59.503Z,-74
2016-06-22T08:33:59.571Z,-75
2016-06-22T08:34:59.674Z,-76
2016-06-22T08:35:59.567Z,-76
2016-06-22T08:36:59.495Z,-76
2016-06-22T08:37:59.518Z,-75
2016-06-22T08:38:59.549Z,-74
2016-06-22T08:39:59.528Z,-74
2016-06-22T08:40:59.575Z,-74
2016-06-22T08:41:59.535Z,-75
2016-06-22T08:42:59.585Z,-74
2016-06-22T08:43:59.569Z,-74
2016-06-22T08:44:59.620Z,-76
2016-06-22T08:45:59.643Z,-78
2016-06-22T08:46:59.579Z,-76
2016-06-22T08:47:59.678Z,-78
2016-06-22T08:48:59.568Z,-77
2016-06-22T08:49:59.571Z,-78
2016-06-22T08:50:59.682Z,-76
2016-06-22T08:51:59.542Z,-75
2016-06-22T08:52:59.591Z,-75
2016-06-22T08:53:59.546Z,-75
2016-06-22T08:54:59.588Z,-77
2016-06-22T08:55:59.615Z,-75
2016-06-22T08:56:59.623Z,-76
2016-06-22T08:57:59.634Z,-75
2016-06-22T08:58:59.613Z,-76
2016-06-22T08:59:59.660Z,-76
2016-06-22T09:00:59.598Z,-73
2016-06-22T09:01:59.589Z,-74
2016-06-22T09:02:59.540Z,-75
2016-06-22T09:03:59.552Z,-75
2016-06-22T09:04:59.575Z,-75
2016-06-22T09:05:59.625Z,-79
2016-06-22T09:06:59.543Z,-71
2016-06-22T09:07:59.615Z,-78
2016-06-22T09:08:59.559Z,-74
2016-06-22T09:09:59.605Z,-74
2016-06-22T09:11:00.130Z,-74
2016-06-22T09:11:59.594Z,-74
2016-06-22T09:12:59.677Z,-74
2016-06-22T09:13:59.608Z,-73
2016-06-22T09:14:59.642Z,-74
2016-06-22T09:15:59.570Z,-73
2016-06-22T09:16:59.623Z,-74
2016-06-22T09:17:59.579Z,-74
2016-06-22T09:18:59.597Z,-73
2016-06-22T09:19:59.644Z,-73
2016-06-22T09:20:59.563Z,-73
2016-06-22T09:21:59.581Z,-73
2016-06-22T09:22:59.590Z,-73
2016-06-22T09:23:59.661Z,-74
2016-06-22T09:24:59.661Z,-74
2016-06-22T09:25:59.648Z,-74
2016-06-22T09:26:59.722Z,-75
2016-06-22T09:27:59.661Z,-76
2016-06-22T09:28:59.625Z,-75
2016-06-22T09:29:59.715Z,-76
2016-06-22T09:30:59.723Z,-78
2016-06-22T09:31:59.643Z,-74
2016-06-22T09:32:59.614Z,-76
2016-06-22T09:33:59.622Z,-75
2016-06-22T09:35:00.275Z,-76
2016-06-22T09:35:59.624Z,-74
2016-06-22T09:36:59.746Z,-77
2016-06-22T09:37:59.625Z,-76
2016-06-22T09:38:59.591Z,-78
2016-06-22T09:39:59.648Z,-76
2016-06-22T09:40:59.621Z,-78
2016-06-22T09:41:59.709Z,-78
2016-06-22T09:42:59.633Z,-79
2016-06-22T09:43:59.765Z,-78
2016-06-22T09:44:59.619Z,-76
2016-06-22T09:45:59.591Z,-77
2016-06-22T09:46:59.618Z,-76
2016-06-22T09:47:59.712Z,-76
2016-06-22T09:48:59.661Z,-76
2016-06-22T09:49:59.639Z,-75
2016-06-22T09:50:59.667Z,-75
2016-06-22T09:51:59.654Z,-74
2016-06-22T09:52:59.638Z,-75
2016-06-22T09:53:59.667Z,-76
2016-06-22T09:54:59.759Z,-75
2016-06-22T09:55:59.612Z,-76
2016-06-22T09:56:59.634Z,-74
2016-06-22T09:57:59.614Z,-74
2016-06-22T09:58:59.726Z,-79
2016-06-22T09:59:59.710Z,-74
2016-06-22T10:00:59.673Z,-73
2016-06-22T10:01:59.647Z,-74
2016-06-22T10:02:59.630Z,-73
2016-06-22T10:03:59.616Z,-73
2016-06-22T10:04:59.755Z,-74
2016-06-22T10:05:59.670Z,-70
2016-06-22T10:06:59.705Z,-71
2016-06-22T10:07:59.735Z,-71
2016-06-22T10:08:59.759Z,-72
2016-06-22T10:09:59.669Z,-71
2016-06-22T10:10:59.695Z,-72
2016-06-22T10:11:59.739Z,-72
2016-06-22T10:12:59.846Z,-71
2016-06-22T10:13:59.546Z,-71
2016-06-22T10:14:59.722Z,-72
2016-06-22T10:15:59.726Z,-71
2016-06-22T10:16:59.702Z,-72
2016-06-22T10:17:59.690Z,-72
2016-06-22T10:18:59.862Z,-73
2016-06-22T10:19:59.733Z,-72
2016-06-22T10:20:59.759Z,-73
2016-06-22T10:21:59.685Z,-74
2016-06-22T10:22:59.642Z,-73
2016-06-22T10:23:59.789Z,-72
2016-06-22T10:24:59.674Z,-72
2016-06-22T10:25:59.707Z,-72
2016-06-22T10:26:59.840Z,-72
2016-06-22T10:27:59.785Z,-74
2016-06-22T10:28:59.696Z,-73
2016-06-22T10:29:59.745Z,-73
2016-06-22T10:30:59.777Z,-72
2016-06-22T10:31:59.725Z,-73
2016-06-22T10:32:59.853Z,-74
2016-06-22T10:33:59.728Z,-72
2016-06-22T10:34:59.731Z,-74
2016-06-22T10:35:59.715Z,-72
2016-06-22T10:36:59.706Z,-71
2016-06-22T10:37:59.754Z,-72
2016-06-22T10:38:59.726Z,-71
2016-06-22T10:39:59.750Z,-70
2016-06-22T10:40:59.804Z,-70
2016-06-22T10:41:59.773Z,-72
2016-06-22T10:42:59.716Z,-72
2016-06-22T10:43:59.736Z,-71
2016-06-22T10:44:59.673Z,-70
2016-06-22T10:45:59.698Z,-71
2016-06-22T10:47:01.097Z,-71
2016-06-22T10:47:59.798Z,-72
2016-06-22T10:48:59.735Z,-70
2016-06-22T10:49:59.744Z,-71
2016-06-22T10:50:59.780Z,-71
2016-06-22T10:51:59.739Z,-71
2016-06-22T10:52:59.732Z,-71
2016-06-22T10:53:59.733Z,-71
2016-06-22T10:54:59.732Z,-69
2016-06-22T10:55:59.768Z,-70
2016-06-22T10:56:59.767Z,-71
2016-06-22T10:57:59.710Z,-71
2016-06-22T10:59:00.262Z,-70
2016-06-22T10:59:59.840Z,-72
2016-06-22T11:00:59.825Z,-71
2016-06-22T11:01:59.801Z,-71
2016-06-22T11:02:59.758Z,-71
2016-06-22T11:03:59.807Z,-70
2016-06-22T11:04:59.759Z,-70
2016-06-22T11:05:59.758Z,-71
2016-06-22T11:06:59.811Z,-72
2016-06-22T11:07:59.755Z,-70
2016-06-22T11:08:59.742Z,-72
2016-06-22T11:09:59.791Z,-70
2016-06-22T11:10:59.756Z,-70
2016-06-22T11:11:59.814Z,-71
2016-06-22T11:12:59.731Z,-71
2016-06-22T11:14:00.777Z,-72
2016-06-22T11:14:59.806Z,-71
2016-06-22T11:15:59.791Z,-71
2016-06-22T11:16:59.787Z,-70
2016-06-22T11:18:59.810Z,-71
2016-06-22T11:19:59.956Z,-71
2016-06-22T11:20:59.813Z,-72
2016-06-22T11:21:59.790Z,-71
2016-06-22T11:22:59.793Z,-71
2016-06-22T11:23:59.731Z,-73
2016-06-22T11:24:59.768Z,-71
2016-06-22T11:25:59.773Z,-71
2016-06-22T11:26:59.834Z,-73
2016-06-22T11:27:59.785Z,-73
2016-06-22T11:28:59.783Z,-72
2016-06-22T11:29:59.797Z,-71
2016-06-22T11:30:59.780Z,-71
2016-06-22T11:31:59.821Z,-71
2016-06-22T11:32:59.873Z,-70
2016-06-22T11:34:00.055Z,-70
2016-06-22T11:34:59.843Z,-71
2016-06-22T11:35:59.813Z,-70
2016-06-22T11:37:00.671Z,-70
2016-06-22T11:37:59.911Z,-70
2016-06-22T11:38:59.830Z,-70
2016-06-22T11:39:59.759Z,-69
2016-06-22T11:40:59.818Z,-70
2016-06-22T11:41:59.781Z,-70
2016-06-22T11:42:59.855Z,-70
2016-06-22T11:43:59.864Z,-70
2016-06-22T11:44:59.860Z,-70
2016-06-22T11:45:59.847Z,-70
2016-06-22T11:46:59.938Z,-70
2016-06-22T11:47:59.939Z,-70
2016-06-22T11:48:59.900Z,-70
2016-06-22T11:49:59.790Z,-70
2016-06-22T11:50:59.879Z,-71
2016-06-22T11:51:59.867Z,-71
2016-06-22T11:52:59.923Z,-70
2016-06-22T11:53:59.850Z,-71
2016-06-22T11:54:59.942Z,-71
2016-06-22T11:56:00.038Z,-71
2016-06-22T11:56:59.868Z,-71
2016-06-22T11:57:59.931Z,-71
2016-06-22T11:58:59.920Z,-71
2016-06-22T11:59:59.936Z,-71
2016-06-22T12:00:59.830Z,-71
2016-06-22T12:01:59.822Z,-72
2016-06-22T12:02:59.764Z,-71
2016-06-22T12:03:59.823Z,-77
2016-06-22T12:04:59.932Z,-74
2016-06-22T12:05:59.863Z,-73
2016-06-22T12:06:59.851Z,-75
2016-06-22T12:07:59.901Z,-74
2016-06-22T12:08:59.851Z,-74
2016-06-22T12:09:59.861Z,-75
2016-06-22T12:10:59.893Z,-75
2016-06-22T12:11:59.900Z,-74
2016-06-22T12:12:59.929Z,-74
2016-06-22T12:13:59.907Z,-74
2016-06-22T12:14:59.979Z,-73
2016-06-22T12:15:59.889Z,-75
2016-06-22T12:16:59.851Z,-74
2016-06-22T12:17:59.843Z,-74
2016-06-22T12:18:59.895Z,-76
2016-06-22T12:20:00.089Z,-76
2016-06-22T12:20:59.899Z,-73
2016-06-22T12:21:59.966Z,-76
2016-06-22T12:23:00.467Z,-76
2016-06-22T12:24:00.038Z,-75
2016-06-22T12:24:59.832Z,-73
2016-06-22T12:25:59.934Z,-74
2016-06-22T12:26:59.813Z,-74
2016-06-22T12:27:59.870Z,-73
2016-06-22T12:28:59.902Z,-74
2016-06-22T12:29:59.818Z,-71
2016-06-22T12:30:59.888Z,-71
2016-06-22T12:31:59.887Z,-71
2016-06-22T12:32:59.875Z,-72
2016-06-22T12:34:00.106Z,-74
2016-06-22T12:34:59.864Z,-72
2016-06-22T12:35:59.941Z,-73
2016-06-22T12:36:59.941Z,-73
2016-06-22T12:37:59.875Z,-73
2016-06-22T12:38:59.863Z,-72
2016-06-22T12:39:59.934Z,-73
2016-06-22T12:40:59.907Z,-73
2016-06-22T12:41:59.973Z,-72
2016-06-22T12:42:59.895Z,-72
2016-06-22T12:43:59.973Z,-74
2016-06-22T12:44:59.958Z,-72
2016-06-22T12:46:00.067Z,-71
2016-06-22T12:46:59.872Z,-72
2016-06-22T12:47:59.931Z,-72
2016-06-22T12:48:59.934Z,-72
2016-06-22T12:49:59.948Z,-73
2016-06-22T12:51:00.011Z,-74
2016-06-22T12:51:59.939Z,-74
2016-06-22T12:52:59.948Z,-74
2016-06-22T12:53:59.886Z,-73
2016-06-22T12:54:59.919Z,-73
2016-06-22T12:55:59.883Z,-73
2016-06-22T12:56:59.904Z,-74
2016-06-22T12:57:59.955Z,-76
2016-06-22T12:58:59.967Z,-76
2016-06-22T12:59:59.911Z,-74
2016-06-22T13:00:59.933Z,-74
2016-06-22T13:01:59.950Z,-74
2016-06-22T13:02:59.943Z,-74
2016-06-22T13:03:59.853Z,-74
2016-06-22T13:04:59.938Z,-73
2016-06-22T13:05:59.957Z,-74
2016-06-22T13:07:00.028Z,-72
2016-06-22T13:07:59.905Z,-73
2016-06-22T13:09:00.026Z,-74
2016-06-22T13:09:59.930Z,-74
2016-06-22T13:10:59.966Z,-75
2016-06-22T13:12:00.112Z,-73
2016-06-22T13:12:59.951Z,-73
2016-06-22T13:14:00.157Z,-73
2016-06-22T13:15:00.044Z,-73
2016-06-22T13:16:03.393Z,-73
2016-06-22T13:16:59.976Z,-72
2016-06-22T13:17:59.950Z,-74
2016-06-22T13:19:00.711Z,-73
2016-06-22T13:19:59.906Z,-73
2016-06-22T13:20:59.978Z,-73
2016-06-22T13:21:59.939Z,-73
2016-06-22T13:22:59.883Z,-73
2016-06-22T13:23:59.997Z,-72
2016-06-22T13:24:59.926Z,-75
2016-06-22T13:26:00.001Z,-74
2016-06-22T13:27:00.356Z,-75
2016-06-22T13:28:00.027Z,-72
2016-06-22T13:28:59.981Z,-75
2016-06-22T13:29:59.924Z,-73
2016-06-22T13:31:00.335Z,-74
2016-06-22T13:32:00.015Z,-74
2016-06-22T13:32:59.930Z,-73
2016-06-22T13:34:00.003Z,-73
2016-06-22T13:35:00.009Z,-73
2016-06-22T13:36:00.025Z,-73
2016-06-22T13:36:59.984Z,-74
2016-06-22T13:37:59.915Z,-75
2016-06-22T13:39:00.046Z,-73
2016-06-22T13:39:59.960Z,-75
2016-06-22T13:41:00.042Z,-74
2016-06-22T13:41:59.982Z,-74
2016-06-22T13:42:59.947Z,-74
2016-06-22T13:44:00.010Z,-74
2016-06-22T13:44:59.920Z,-74
2016-06-22T13:46:00.014Z,-73
2016-06-22T13:47:00.042Z,-74
2016-06-22T13:48:00.004Z,-76